createdAt,value
2023-03-12T00:02:01.811Z,43.61
2023-03-12T00:04:28.863Z,43.56
2023-03-12T00:06:55.357Z,43.53
2023-03-12T00:09:21.867Z,43.51
2023-03-12T00:11:48.339Z,43.59
2023-03-12T00:14:15.189Z,43.48
2023-03-12T00:16:43.016Z,43.56
2023-03-12T00:19:12.280Z,43.62
2023-03-12T00:21:39.028Z,43.81
2023-03-12T00:24:06.678Z,43.68
2023-03-12T00:26:33.158Z,43.73
2023-03-12T00:28:59.818Z,43.61
2023-03-12T00:31:29.023Z,43.64
2023-03-12T00:33:57.016Z,43.70
2023-03-12T00:36:25.338Z,43.60
2023-03-12T00:38:52.353Z,43.36
2023-03-12T00:41:19.088Z,43.53
2023-03-12T00:43:45.621Z,43.64
2023-03-12T00:46:12.655Z,43.68
2023-03-12T00:48:39.562Z,43.63
2023-03-12T00:51:07.673Z,43.50
2023-03-12T00:53:34.230Z,43.68
2023-03-12T00:56:00.802Z,43.87
2023-03-12T00:58:27.311Z,43.76
2023-03-12T01:00:54.012Z,43.58
2023-03-12T01:03:20.680Z,43.78
2023-03-12T01:05:47.188Z,43.83
2023-03-12T01:08:15.033Z,43.64
2023-03-12T01:10:42.836Z,43.57
2023-03-12T01:13:09.358Z,43.60
2023-03-12T01:15:35.855Z,43.63
2023-03-12T01:18:02.807Z,43.61
2023-03-12T01:20:29.336Z,43.53
2023-03-12T01:22:55.853Z,43.68
2023-03-12T01:25:23.719Z,43.62
2023-03-12T01:27:50.332Z,43.67
2023-03-12T01:30:17.056Z,43.58
2023-03-12T01:32:43.681Z,43.69
2023-03-12T01:35:10.489Z,43.58
2023-03-12T01:37:37.003Z,43.68
2023-03-12T01:40:03.968Z,43.70
2023-03-12T01:42:31.776Z,43.62
2023-03-12T01:45:00.756Z,43.64
2023-03-12T01:47:29.145Z,43.30
2023-03-12T01:49:56.084Z,43.49
2023-03-12T01:52:27.335Z,43.68
2023-03-12T01:54:58.485Z,43.59
2023-03-12T01:57:30.321Z,43.78
2023-03-12T02:00:02.231Z,43.56
2023-03-12T02:02:29.097Z,43.61
2023-03-12T02:05:06.276Z,43.30
2023-03-12T02:07:34.438Z,43.55
2023-03-12T02:10:01.957Z,43.33
2023-03-12T02:12:28.500Z,43.46
2023-03-12T02:14:55.027Z,43.43
2023-03-12T02:17:23.130Z,43.32
2023-03-12T02:19:57.860Z,43.55
2023-03-12T02:22:24.822Z,43.57
2023-03-12T02:24:56.682Z,43.43
2023-03-12T02:27:24.804Z,43.52
2023-03-12T02:29:51.395Z,43.50
2023-03-12T02:32:23.174Z,43.55
2023-03-12T02:34:49.738Z,43.42
2023-03-12T02:37:16.517Z,43.48
2023-03-12T02:39:49.959Z,43.40
2023-03-12T02:42:16.499Z,43.34
2023-03-12T02:44:44.334Z,43.33
2023-03-12T02:47:10.812Z,43.29
2023-03-12T02:49:37.284Z,43.23
2023-03-12T02:52:04.554Z,43.37
2023-03-12T02:54:31.222Z,43.52
2023-03-12T02:56:58.184Z,43.43
2023-03-12T02:59:25.177Z,43.44
2023-03-12T03:01:54.367Z,43.29
2023-03-12T03:04:21.232Z,43.00
2023-03-12T03:06:47.789Z,43.16
2023-03-12T03:09:15.117Z,43.24
2023-03-12T03:11:41.738Z,43.29
2023-03-12T03:14:08.761Z,43.31
2023-03-12T03:16:35.315Z,43.24
2023-03-12T03:19:03.182Z,43.20
2023-03-12T03:21:30.243Z,43.18
2023-03-12T03:23:56.878Z,43.41
2023-03-12T03:26:24.451Z,43.31
2023-03-12T03:28:51.540Z,43.24
2023-03-12T03:31:18.600Z,43.13
2023-03-12T03:33:45.317Z,43.37
2023-03-12T03:36:14.076Z,43.17
2023-03-12T03:38:41.116Z,43.27
2023-03-12T03:41:08.061Z,43.42
2023-03-12T03:43:34.566Z,43.30
2023-03-12T03:46:03.042Z,43.29
2023-03-12T03:48:29.689Z,43.29
2023-03-12T03:50:59.826Z,43.31
2023-03-12T03:53:27.633Z,43.53
2023-03-12T03:55:54.213Z,43.26
2023-03-12T03:58:20.898Z,43.27
2023-03-12T04:00:47.404Z,43.32
2023-03-12T04:03:14.289Z,43.21
2023-03-12T04:05:41.222Z,43.33
2023-03-12T04:08:08.017Z,43.30
2023-03-12T04:10:37.416Z,43.31
2023-03-12T04:13:04.274Z,43.21
2023-03-12T04:15:30.944Z,43.21
2023-03-12T04:17:57.689Z,43.25
2023-03-12T04:20:24.423Z,43.21
2023-03-12T04:22:50.927Z,43.23
2023-03-12T04:25:17.749Z,43.45
2023-03-12T04:27:45.716Z,43.13
2023-03-12T04:30:12.988Z,43.12
2023-03-12T04:32:39.597Z,43.10
2023-03-12T04:35:06.417Z,43.15
2023-03-12T04:37:33.505Z,43.20
2023-03-12T04:40:01.084Z,43.10
2023-03-12T04:42:27.607Z,43.22
2023-03-12T04:44:55.798Z,43.07
2023-03-12T04:47:22.327Z,43.06
2023-03-12T04:49:48.882Z,43.25
2023-03-12T04:52:15.356Z,43.41
2023-03-12T04:54:41.890Z,43.27
2023-03-12T04:57:08.452Z,43.16
2023-03-12T04:59:35.380Z,43.15
2023-03-12T05:02:03.196Z,43.09
2023-03-12T05:04:31.879Z,43.29
2023-03-12T05:06:59.731Z,43.12
2023-03-12T05:09:26.275Z,43.21
2023-03-12T05:11:52.877Z,43.27
2023-03-12T05:14:19.524Z,43.13
2023-03-12T05:16:46.142Z,43.14
2023-03-12T05:19:14.091Z,43.14
2023-03-12T05:21:41.224Z,43.33
2023-03-12T05:24:08.214Z,43.33
2023-03-12T05:26:35.056Z,43.36
2023-03-12T05:29:02.364Z,43.38
2023-03-12T05:31:29.148Z,43.23
2023-03-12T05:33:55.686Z,43.22
2023-03-12T05:36:23.503Z,43.11
2023-03-12T05:38:50.624Z,43.15
2023-03-12T05:41:20.716Z,43.17
2023-03-12T05:43:47.874Z,43.06
2023-03-12T05:46:14.903Z,43.11
2023-03-12T05:48:41.747Z,43.02
2023-03-12T05:51:08.336Z,43.14
2023-03-12T05:53:36.138Z,43.20
2023-03-12T05:56:03.942Z,43.13
2023-03-12T05:58:30.918Z,43.17
2023-03-12T06:00:57.596Z,43.11
2023-03-12T06:03:24.244Z,43.10
2023-03-12T06:05:51.042Z,43.13
2023-03-12T06:08:17.539Z,43.25
2023-03-12T06:10:45.366Z,43.02
2023-03-12T06:13:11.854Z,43.03
2023-03-12T06:15:38.374Z,43.01
2023-03-12T06:18:04.896Z,43.01
2023-03-12T06:20:31.512Z,43.09
2023-03-12T06:22:58.065Z,42.96
2023-03-12T06:25:24.638Z,43.19
2023-03-12T06:27:52.407Z,43.20
2023-03-12T06:30:19.007Z,43.20
2023-03-12T06:32:45.560Z,43.09
2023-03-12T06:35:12.161Z,43.18
2023-03-12T06:37:38.652Z,43.08
2023-03-12T06:40:06.101Z,43.04
2023-03-12T06:42:32.569Z,43.09
2023-03-12T06:45:00.367Z,43.11
2023-03-12T06:47:26.911Z,42.83
2023-03-12T06:49:53.644Z,42.86
2023-03-12T06:52:20.202Z,43.06
2023-03-12T06:54:46.726Z,43.08
2023-03-12T06:57:13.432Z,42.99
2023-03-12T06:59:40.570Z,43.21
2023-03-12T07:02:10.321Z,42.97
2023-03-12T07:04:37.082Z,43.03
2023-03-12T07:07:03.691Z,42.86
2023-03-12T07:09:30.448Z,42.96
2023-03-12T07:11:56.955Z,42.82
2023-03-12T07:14:23.471Z,42.88
2023-03-12T07:16:49.990Z,42.92
2023-03-12T07:19:18.343Z,42.89
2023-03-12T07:21:44.827Z,43.01
2023-03-12T07:24:11.468Z,42.95
2023-03-12T07:26:37.938Z,42.91
2023-03-12T07:29:04.865Z,42.98
2023-03-12T07:31:31.482Z,43.18
2023-03-12T07:33:58.155Z,42.90
2023-03-12T07:36:26.443Z,42.86
2023-03-12T07:38:53.177Z,42.83
2023-03-12T07:41:19.701Z,42.99
2023-03-12T07:43:47.243Z,42.72
2023-03-12T07:46:14.133Z,42.83
2023-03-12T07:48:44.014Z,42.92
2023-03-12T07:51:11.068Z,42.85
2023-03-12T07:53:38.931Z,42.93
2023-03-12T07:56:06.706Z,42.98
2023-03-12T07:58:33.355Z,42.94
2023-03-12T08:00:59.952Z,43.00
2023-03-12T08:03:26.613Z,42.89
2023-03-12T08:05:57.996Z,42.98
2023-03-12T08:08:24.938Z,42.82
2023-03-12T08:10:53.341Z,42.86
2023-03-12T08:13:20.386Z,42.86
2023-03-12T08:15:46.969Z,42.88
2023-03-12T08:18:13.509Z,42.96
2023-03-12T08:20:40.005Z,42.95
2023-03-12T08:23:06.544Z,42.91
2023-03-12T08:25:33.072Z,42.87
2023-03-12T08:28:01.034Z,43.02
2023-03-12T08:30:30.071Z,42.91
2023-03-12T08:32:56.968Z,42.91
2023-03-12T08:35:23.912Z,42.85
2023-03-12T08:37:50.445Z,42.83
2023-03-12T08:40:17.264Z,42.92
2023-03-12T08:42:44.623Z,42.72
2023-03-12T08:45:13.527Z,42.84
2023-03-12T08:47:40.045Z,43.03
2023-03-12T08:50:07.975Z,42.62
2023-03-12T08:52:34.516Z,42.93
2023-03-12T08:55:01.092Z,42.90
2023-03-12T08:57:28.159Z,42.87
2023-03-12T08:59:54.707Z,42.75
2023-03-12T09:02:22.571Z,42.83
2023-03-12T09:04:49.429Z,42.92
2023-03-12T09:07:16.288Z,42.84
2023-03-12T09:09:42.912Z,43.04
2023-03-12T09:12:09.774Z,42.78
2023-03-12T09:15:02.613Z,42.82
2023-03-12T09:17:24.234Z,42.77
2023-03-12T09:19:50.771Z,42.90
2023-03-12T09:22:17.277Z,42.82
2023-03-12T09:24:43.778Z,42.87
2023-03-12T09:27:10.360Z,42.84
2023-03-12T09:29:46.545Z,42.78
2023-03-12T09:32:20.070Z,42.92
2023-03-12T09:34:47.968Z,42.84
2023-03-12T09:37:14.468Z,42.93
2023-03-12T09:39:41.087Z,42.80
2023-03-12T09:42:18.906Z,42.78
2023-03-12T09:44:47.188Z,42.97
2023-03-12T09:47:23.690Z,42.68
2023-03-12T09:49:55.637Z,42.89
2023-03-12T09:52:25.670Z,42.83
2023-03-12T09:54:58.733Z,42.86
2023-03-12T09:57:27.665Z,42.78
2023-03-12T09:59:54.195Z,43.00
2023-03-12T10:02:44.490Z,42.90
2023-03-12T10:05:17.154Z,42.90
2023-03-12T10:07:50.043Z,42.97
2023-03-12T10:10:27.588Z,42.91
2023-03-12T10:13:14.066Z,42.90
2023-03-12T10:15:49.855Z,42.89
2023-03-12T10:18:28.011Z,42.67
2023-03-12T10:21:16.047Z,42.98
2023-03-12T10:23:56.795Z,43.00
2023-03-12T10:26:25.197Z,42.96
2023-03-12T10:28:57.351Z,42.88
2023-03-12T10:31:27.721Z,42.79
2023-03-12T10:33:56.879Z,42.81
2023-03-12T10:36:28.442Z,42.85
2023-03-12T10:38:55.139Z,42.89
2023-03-12T10:41:24.494Z,42.89
2023-03-12T10:43:51.406Z,42.86
2023-03-12T10:46:37.951Z,42.89
2023-03-12T10:49:24.362Z,42.82
2023-03-12T10:51:57.422Z,42.87
2023-03-12T10:54:29.501Z,43.04
2023-03-12T10:56:56.625Z,42.96
2023-03-12T10:59:28.114Z,43.11
2023-03-12T11:01:54.857Z,42.90
2023-03-12T11:04:24.545Z,43.12
2023-03-12T11:07:07.493Z,42.83
2023-03-12T11:09:34.028Z,42.96
2023-03-12T11:12:00.592Z,42.86
2023-03-12T11:14:29.508Z,42.87
2023-03-12T11:16:57.169Z,43.00
2023-03-12T11:19:29.648Z,42.83
2023-03-12T11:21:58.501Z,43.00
2023-03-12T11:24:26.358Z,43.04
2023-03-12T11:26:57.009Z,43.01
2023-03-12T11:29:27.684Z,43.08
2023-03-12T11:32:02.316Z,42.96
2023-03-12T11:34:32.685Z,43.08
2023-03-12T11:37:07.519Z,42.86
2023-03-12T11:39:47.389Z,42.99
2023-03-12T11:42:32.284Z,42.94
2023-03-12T11:45:07.512Z,42.93
2023-03-12T11:47:49.058Z,42.78
2023-03-12T11:50:26.774Z,43.16
2023-03-12T11:53:10.457Z,43.15
2023-03-12T11:55:54.784Z,43.12
2023-03-12T11:58:32.747Z,42.94
2023-03-12T12:01:09.409Z,42.87
2023-03-12T12:03:48.796Z,42.98
2023-03-12T12:06:27.612Z,43.06
2023-03-12T12:09:07.612Z,43.01
2023-03-12T12:11:46.583Z,43.01
2023-03-12T12:14:24.796Z,43.18
2023-03-12T12:17:03.204Z,43.00
2023-03-12T12:19:42.598Z,43.19
2023-03-12T12:22:27.509Z,43.25
2023-03-12T12:25:17.822Z,43.16
2023-03-12T12:27:59.604Z,43.19
2023-03-12T12:30:47.522Z,43.25
2023-03-12T12:33:30.658Z,43.20
2023-03-12T12:35:57.508Z,43.21
2023-03-12T12:38:29.838Z,43.19
2023-03-12T12:41:03.568Z,43.24
2023-03-12T12:43:36.604Z,43.13
2023-03-12T12:46:06.650Z,43.41
2023-03-12T12:48:36.628Z,43.33
2023-03-12T12:51:08.300Z,43.18
2023-03-12T12:53:43.949Z,43.26
2023-03-12T12:56:19.739Z,43.17
2023-03-12T12:59:00.608Z,43.25
2023-03-12T13:01:28.059Z,43.21
2023-03-12T13:04:00.007Z,43.24
2023-03-12T13:06:28.178Z,43.39
2023-03-12T13:09:12.326Z,43.45
2023-03-12T13:11:42.952Z,43.36
2023-03-12T13:14:20.278Z,43.26
2023-03-12T13:16:47.508Z,43.31
2023-03-12T13:19:25.596Z,43.36
2023-03-12T13:22:03.923Z,43.17
2023-03-12T13:24:34.624Z,43.35
2023-03-12T13:27:12.096Z,43.38
2023-03-12T13:29:41.997Z,43.54
2023-03-12T13:32:30.612Z,43.25
2023-03-12T13:34:57.854Z,43.61
2023-03-12T13:37:39.464Z,43.19
2023-03-12T13:40:35.061Z,43.24
2023-03-12T13:43:06.087Z,43.23
2023-03-12T13:45:41.639Z,43.48
2023-03-12T13:48:15.682Z,43.42
2023-03-12T13:50:50.619Z,43.53
2023-03-12T13:53:22.581Z,43.48
2023-03-12T13:56:01.238Z,43.65
2023-03-12T13:58:28.513Z,43.50
2023-03-12T14:01:01.852Z,43.22
2023-03-12T14:03:31.048Z,43.60
2023-03-12T14:06:00.326Z,43.54
2023-03-12T14:08:42.458Z,43.52
2023-03-12T14:11:30.022Z,43.54
2023-03-12T14:14:16.989Z,43.66
2023-03-12T14:16:47.483Z,43.72
2023-03-12T14:19:15.480Z,43.33
2023-03-12T14:21:45.067Z,43.50
2023-03-12T14:24:22.981Z,43.50
2023-03-12T14:26:50.192Z,43.48
2023-03-12T14:29:23.269Z,43.64
2023-03-12T14:31:54.625Z,43.55
2023-03-12T14:34:24.156Z,43.57
2023-03-12T14:36:58.574Z,43.57
2023-03-12T14:39:30.333Z,43.74
2023-03-12T14:42:00.324Z,43.56
2023-03-12T14:44:28.391Z,43.69
2023-03-12T14:46:59.687Z,43.69
2023-03-12T14:49:26.385Z,43.75
2023-03-12T14:51:53.682Z,43.76
2023-03-12T14:54:22.503Z,43.63
2023-03-12T14:56:49.710Z,43.78
2023-03-12T14:59:26.904Z,43.97
2023-03-12T15:02:00.979Z,43.74
2023-03-12T15:04:30.254Z,43.67
2023-03-12T15:06:58.202Z,43.57
2023-03-12T15:09:26.857Z,43.77
2023-03-12T15:11:56.026Z,43.81
2023-03-12T15:14:24.690Z,43.76
2023-03-12T15:16:51.975Z,43.89
2023-03-12T15:19:23.104Z,43.86
2023-03-12T15:21:50.646Z,43.92
2023-03-12T15:24:17.397Z,43.76
2023-03-12T15:26:43.939Z,43.82
2023-03-12T15:29:22.907Z,43.75
2023-03-12T15:31:49.832Z,43.67
2023-03-12T15:34:31.791Z,43.86
2023-03-12T15:36:59.152Z,43.70
2023-03-12T15:39:28.814Z,43.86
2023-03-12T15:41:59.914Z,43.75
2023-03-12T15:44:29.345Z,43.91
2023-03-12T15:47:02.694Z,43.87
2023-03-12T15:49:32.953Z,43.96
2023-03-12T15:52:02.897Z,44.04
2023-03-12T15:54:30.544Z,43.87
2023-03-12T15:57:17.916Z,44.03
2023-03-12T15:59:44.564Z,44.02
2023-03-12T16:02:11.780Z,43.90
2023-03-12T16:04:39.657Z,43.94
2023-03-12T16:07:12.157Z,43.88
2023-03-12T16:09:38.778Z,44.02
2023-03-12T16:12:05.504Z,43.96
2023-03-12T16:14:33.503Z,44.18
2023-03-12T16:17:00.282Z,44.15
2023-03-12T16:19:30.256Z,44.06
2023-03-12T16:21:58.155Z,44.15
2023-03-12T16:24:24.660Z,44.13
2023-03-12T16:26:54.757Z,44.19
2023-03-12T16:29:22.040Z,44.11
2023-03-12T16:31:51.637Z,44.20
2023-03-12T16:34:18.165Z,44.22
2023-03-12T16:36:44.737Z,44.13
2023-03-12T16:39:12.605Z,44.19
2023-03-12T16:41:39.260Z,44.24
2023-03-12T16:44:07.403Z,44.28
2023-03-12T16:46:34.713Z,44.36
2023-03-12T16:49:01.744Z,44.35
2023-03-12T16:51:28.316Z,44.34
2023-03-12T16:54:07.402Z,44.64
2023-03-12T16:56:37.452Z,44.40
2023-03-12T16:59:07.227Z,44.34
2023-03-12T17:01:33.918Z,44.47
2023-03-12T17:04:00.644Z,44.40
2023-03-12T17:06:27.571Z,44.40
2023-03-12T17:08:54.502Z,44.44
2023-03-12T17:11:23.897Z,44.52
2023-03-12T17:13:55.516Z,44.53
2023-03-12T17:16:22.085Z,44.48
2023-03-12T17:18:48.655Z,44.59
2023-03-12T17:21:16.922Z,44.67
2023-03-12T17:23:43.767Z,44.90
2023-03-12T17:26:10.254Z,44.63
2023-03-12T17:28:36.968Z,44.91
2023-03-12T17:31:05.565Z,44.73
2023-03-12T17:33:32.150Z,44.62
2023-03-12T17:35:59.967Z,44.60
2023-03-12T17:38:26.921Z,44.92
2023-03-12T17:40:53.678Z,44.71
2023-03-12T17:43:20.306Z,44.82
2023-03-12T17:45:46.878Z,45.18
2023-03-12T17:48:15.287Z,44.88
2023-03-12T17:50:42.373Z,45.04
2023-03-12T17:53:09.064Z,44.96
2023-03-12T17:55:36.409Z,44.88
2023-03-12T17:58:03.543Z,44.94
2023-03-12T18:00:30.380Z,45.13
2023-03-12T18:02:56.987Z,44.99
2023-03-12T18:05:25.130Z,44.90
2023-03-12T18:07:51.731Z,45.14
2023-03-12T18:10:18.537Z,44.87
2023-03-12T18:12:45.080Z,44.89
2023-03-12T18:15:14.034Z,45.31
2023-03-12T18:17:41.322Z,45.30
2023-03-12T18:20:09.027Z,45.13
2023-03-12T18:22:38.363Z,45.13
2023-03-12T18:25:07.099Z,45.09
2023-03-12T18:27:33.663Z,45.25
2023-03-12T18:30:00.163Z,45.30
2023-03-12T18:32:26.794Z,45.32
2023-03-12T18:34:53.347Z,45.33
2023-03-12T18:37:20.264Z,45.22
2023-03-12T18:39:48.327Z,45.21
2023-03-12T18:42:14.867Z,45.34
2023-03-12T18:44:41.505Z,45.29
2023-03-12T18:47:08.033Z,45.43
2023-03-12T18:49:34.519Z,45.56
2023-03-12T18:52:01.005Z,45.49
2023-03-12T18:54:27.610Z,45.57
2023-03-12T18:56:55.505Z,45.37
2023-03-12T18:59:21.973Z,45.50
2023-03-12T19:01:48.524Z,45.50
2023-03-12T19:04:17.440Z,45.67
2023-03-12T19:06:50.850Z,45.55
2023-03-12T19:09:18.830Z,45.68
2023-03-12T19:11:46.411Z,45.67
2023-03-12T19:14:14.259Z,45.85
2023-03-12T19:16:40.929Z,45.90
2023-03-12T19:19:07.532Z,45.92
2023-03-12T19:21:34.012Z,46.03
2023-03-12T19:24:00.545Z,45.84
2023-03-12T19:26:27.046Z,45.94
2023-03-12T19:28:53.632Z,45.95
2023-03-12T19:31:21.540Z,45.70
2023-03-12T19:33:48.141Z,45.91
2023-03-12T19:36:14.654Z,46.02
2023-03-12T19:38:41.241Z,45.93
2023-03-12T19:41:08.182Z,45.96
2023-03-12T19:43:35.232Z,46.14
2023-03-12T19:46:01.829Z,46.28
2023-03-12T19:48:30.001Z,46.28
2023-03-12T19:50:56.528Z,46.17
2023-03-12T19:53:23.305Z,46.18
2023-03-12T19:55:49.855Z,46.16
2023-03-12T19:58:17.055Z,46.19
2023-03-12T20:00:43.975Z,46.15
2023-03-12T20:03:10.599Z,46.31
2023-03-12T20:05:42.174Z,46.24
2023-03-12T20:08:08.706Z,46.42
2023-03-12T20:10:35.192Z,46.45
2023-03-12T20:13:01.746Z,46.60
2023-03-12T20:15:28.377Z,46.59
2023-03-12T20:17:54.970Z,46.50
2023-03-12T20:20:21.495Z,46.33
2023-03-12T20:22:49.261Z,46.48
2023-03-12T20:25:16.153Z,46.45
2023-03-12T20:27:42.693Z,46.45
2023-03-12T20:30:10.790Z,46.54
2023-03-12T20:32:37.464Z,46.70
2023-03-12T20:35:04.386Z,46.48
2023-03-12T20:37:30.912Z,46.57
2023-03-12T20:39:58.726Z,46.50
2023-03-12T20:42:25.232Z,46.59
2023-03-12T20:44:51.739Z,46.63
2023-03-12T20:47:18.343Z,46.60
2023-03-12T20:49:44.832Z,46.64
2023-03-12T20:52:11.310Z,46.57
2023-03-12T20:54:37.793Z,46.49
2023-03-12T20:57:06.642Z,46.73
2023-03-12T20:59:33.102Z,46.73
2023-03-12T21:01:59.692Z,46.56
2023-03-12T21:04:26.307Z,46.96
2023-03-12T21:06:52.778Z,46.68
2023-03-12T21:09:21.331Z,46.90
2023-03-12T21:11:47.890Z,47.02
2023-03-12T21:14:15.810Z,46.90
2023-03-12T21:16:42.335Z,46.97
2023-03-12T21:19:09.020Z,46.92
2023-03-12T21:21:35.512Z,46.89
2023-03-12T21:24:01.998Z,47.08
2023-03-12T21:26:28.501Z,47.09
2023-03-12T21:28:54.972Z,47.11
2023-03-12T21:31:22.940Z,46.87
2023-03-12T21:33:49.509Z,46.86
2023-03-12T21:36:16.278Z,47.00
2023-03-12T21:38:42.881Z,47.05
2023-03-12T21:41:11.067Z,47.17
2023-03-12T21:43:37.970Z,47.43
2023-03-12T21:46:05.033Z,47.00
2023-03-12T21:48:33.110Z,46.98
2023-03-12T21:51:03.831Z,47.29
2023-03-12T21:53:30.461Z,47.00
2023-03-12T21:55:58.885Z,47.19
2023-03-12T21:58:26.582Z,47.49
2023-03-12T22:01:01.447Z,47.17
2023-03-12T22:03:28.026Z,47.22
2023-03-12T22:05:55.828Z,47.25
2023-03-12T22:08:22.370Z,47.17
2023-03-12T22:10:48.956Z,47.17
2023-03-12T22:13:15.473Z,47.29
2023-03-12T22:15:41.986Z,47.27
2023-03-12T22:18:08.585Z,47.25
2023-03-12T22:20:35.093Z,47.37
2023-03-12T22:23:03.057Z,47.17
2023-03-12T22:25:30.149Z,47.16
2023-03-12T22:27:56.662Z,47.13
2023-03-12T22:30:23.168Z,47.12
2023-03-12T22:32:49.698Z,47.06
2023-03-12T22:35:16.386Z,47.23
2023-03-12T22:37:44.479Z,47.01
2023-03-12T22:40:13.817Z,47.16
2023-03-12T22:42:40.337Z,47.25
2023-03-12T22:45:08.012Z,47.20
2023-03-12T22:47:34.588Z,47.11
2023-03-12T22:50:01.079Z,47.17
2023-03-12T22:52:27.619Z,47.18
2023-03-12T22:54:54.291Z,47.17
2023-03-12T22:57:22.102Z,47.12
2023-03-12T22:59:48.677Z,47.30
2023-03-12T23:02:15.213Z,47.11
2023-03-12T23:04:41.884Z,47.28
2023-03-12T23:07:14.808Z,47.11
2023-03-12T23:09:43.414Z,47.01
2023-03-12T23:12:09.999Z,47.16
2023-03-12T23:14:37.750Z,47.30
2023-03-12T23:17:04.345Z,47.29
2023-03-12T23:19:32.432Z,47.19
2023-03-12T23:21:59.254Z,47.29
2023-03-12T23:24:25.764Z,47.33
2023-03-12T23:26:52.411Z,47.16
2023-03-12T23:29:19.011Z,47.26
2023-03-12T23:31:46.899Z,47.09
2023-03-12T23:34:13.456Z,46.96
2023-03-12T23:36:40.061Z,47.15
2023-03-12T23:39:06.613Z,47.02
2023-03-12T23:41:33.121Z,47.11
2023-03-12T23:44:00.449Z,47.15
2023-03-12T23:46:27.671Z,47.15
2023-03-12T23:48:55.634Z,47.34
2023-03-12T23:51:24.009Z,47.45
2023-03-12T23:53:52.206Z,47.12
2023-03-12T23:56:20.972Z,47.29
2023-03-12T23:58:48.684Z,47.15
